Time;durP1;ratioP1;P1;durP2;ratioP2;P2;SDS_P1;SDS_P2;PMS_P1;PMS_P2;Temp;Humidity;BMP_temperature;BMP_pressure;BME280_temperature;BME280_humidity;BME280_pressure;Samples;Min_cycle;Max_cycle;Signal;HPM_P1;HPM_P2
2023/04/15 00:01:04;;;;;;;4.68;3.53;;;;;;;8.90;71.72;100824.38;4990352;28;20125;-74
2023/04/15 00:03:30;;;;;;;4.78;3.35;;;;;;;8.89;71.36;100827.88;4990612;28;20042;-74
2023/04/15 00:05:56;;;;;;;5.28;3.45;;;;;;;8.88;70.93;100828.78;4992732;28;20320;-74
2023/04/15 00:08:21;;;;;;;6.10;3.33;;;;;;;8.88;70.73;100830.53;4989448;28;20081;-74
2023/04/15 00:10:48;;;;;;;6.55;3.42;;;;;;;8.88;70.95;100834.00;4991751;28;20241;-73
2023/04/15 00:13:14;;;;;;;6.20;4.35;;;;;;;8.87;71.13;100823.63;4989608;28;20046;-74
2023/04/15 00:15:39;;;;;;;9.00;4.20;;;;;;;8.87;71.07;100827.06;4990455;28;20053;-74
2023/04/15 00:18:06;;;;;;;7.47;4.10;;;;;;;8.87;71.40;100832.28;4994971;28;20061;-74
2023/04/15 00:20:31;;;;;;;8.40;4.32;;;;;;;8.86;71.16;100834.97;4997445;28;20369;-74
2023/04/15 00:22:59;;;;;;;6.65;4.00;;;;;;;8.83;70.61;100828.09;4987521;28;20038;-74
2023/04/15 00:25:24;;;;;;;7.47;3.63;;;;;;;8.81;70.61;100830.75;4977940;28;20116;-74
2023/04/15 00:27:50;;;;;;;3.78;3.13;;;;;;;8.80;70.05;100834.28;4983333;28;20448;-74
2023/04/15 00:30:15;;;;;;;5.32;3.95;;;;;;;8.78;69.96;100837.81;4996570;28;20326;-74
2023/04/15 00:32:41;;;;;;;9.30;4.25;;;;;;;8.77;69.63;100841.38;4995794;28;20041;-74
2023/04/15 00:35:07;;;;;;;7.55;3.88;;;;;;;8.74;70.09;100844.91;4996144;28;20034;-74
2023/04/15 00:37:34;;;;;;;7.53;3.83;;;;;;;8.72;70.27;100841.50;4997548;28;20084;-74
2023/04/15 00:39:59;;;;;;;7.82;3.40;;;;;;;8.70;69.99;100845.91;4997415;28;20045;-74
2023/04/15 00:42:26;;;;;;;8.18;4.10;;;;;;;8.69;69.93;100844.19;4997063;28;20038;-74
2023/04/15 00:44:52;;;;;;;8.40;4.10;;;;;;;8.69;70.25;100832.91;4997369;28;20034;-74
2023/04/15 00:47:17;;;;;;;6.45;3.88;;;;;;;8.65;70.10;100840.84;4989048;28;20057;-74
2023/04/15 00:49:43;;;;;;;6.72;4.00;;;;;;;8.63;70.23;100833.97;4979883;28;20046;-74
2023/04/15 00:52:08;;;;;;;4.45;3.85;;;;;;;8.61;70.85;100830.56;4986381;28;20050;-74
2023/04/15 00:54:34;;;;;;;8.80;4.30;;;;;;;8.59;71.24;100829.75;4981552;28;20046;-74
2023/04/15 00:57:00;;;;;;;7.55;4.13;;;;;;;8.57;71.11;100832.41;4984488;28;20101;-74
2023/04/15 00:59:26;;;;;;;6.57;4.22;;;;;;;8.54;71.33;100837.72;4997299;28;20090;-74
2023/04/15 01:01:52;;;;;;;6.30;3.92;;;;;;;8.53;71.35;100835.16;4993987;28;20349;-74
2023/04/15 01:04:17;;;;;;;4.25;3.85;;;;;;;8.55;71.45;100841.19;4979153;28;20042;-74
2023/04/15 01:06:43;;;;;;;5.97;3.97;;;;;;;8.55;71.37;100849.88;4983368;28;20050;-74
2023/04/15 01:09:08;;;;;;;5.47;3.83;;;;;;;8.54;71.81;100840.34;5003652;28;20030;-74
2023/04/15 01:11:34;;;;;;;7.07;4.50;;;;;;;8.53;71.64;100841.25;5003203;28;20084;-74
2023/04/15 01:14:00;;;;;;;6.40;4.13;;;;;;;8.54;71.72;100850.78;5004148;28;20074;-74
2023/04/15 01:16:27;;;;;;;6.50;4.20;;;;;;;8.52;71.08;100846.53;5003411;28;20248;-74
2023/04/15 01:18:53;;;;;;;8.38;5.05;;;;;;;8.49;71.10;100844.84;4992226;28;20042;-74
2023/04/15 01:21:19;;;;;;;6.55;4.60;;;;;;;8.45;70.63;100849.31;5003541;28;20054;-74
2023/04/15 01:23:47;;;;;;;8.75;4.57;;;;;;;8.42;70.79;100843.31;5003131;28;20076;-74
2023/04/15 01:26:12;;;;;;;6.55;4.03;;;;;;;8.39;70.51;100840.81;5003754;28;20237;-74
2023/04/15 01:28:38;;;;;;;8.25;4.75;;;;;;;8.36;71.03;100844.34;5003039;28;20038;-74
2023/04/15 01:31:15;;;;;;;7.78;4.95;;;;;;;8.32;71.16;100840.13;4993412;28;20050;-74
2023/04/15 01:33:42;;;;;;;5.75;4.70;;;;;;;8.31;71.82;100843.63;4999247;28;20057;-74
2023/04/15 01:36:08;;;;;;;10.00;4.60;;;;;;;8.29;70.90;100839.38;5003307;28;20101;-74
2023/04/15 01:38:35;;;;;;;7.43;4.90;;;;;;;8.25;71.22;100839.47;4995981;28;20084;-74
2023/04/15 01:41:01;;;;;;;7.70;5.18;;;;;;;8.24;71.61;100839.50;4988475;28;20042;-74
2023/04/15 01:43:27;;;;;;;7.15;4.85;;;;;;;8.22;71.60;100834.34;4999121;28;20057;-74
2023/04/15 01:45:52;;;;;;;10.48;4.95;;;;;;;8.20;72.09;100832.69;4987339;28;20104;-74
2023/04/15 01:48:17;;;;;;;9.00;5.15;;;;;;;8.19;71.91;100839.66;4999457;28;20041;-74
2023/04/15 01:50:43;;;;;;;5.85;4.43;;;;;;;8.17;72.43;100841.47;4999863;28;20104;-74
2023/04/15 01:53:09;;;;;;;10.38;4.90;;;;;;;8.17;72.41;100844.06;4988511;28;20058;-74
2023/04/15 01:55:35;;;;;;;9.02;5.00;;;;;;;8.14;72.21;100846.78;4983596;28;20042;-74
2023/04/15 01:58:01;;;;;;;9.40;4.95;;;;;;;8.14;72.62;100848.53;4990264;28;20030;-74
2023/04/15 02:00:27;;;;;;;7.00;4.85;;;;;;;8.13;72.86;100845.09;5002984;28;20053;-74
2023/04/15 02:02:52;;;;;;;10.18;5.05;;;;;;;8.14;73.03;100846.78;4991622;28;20046;-74
2023/04/15 02:05:18;;;;;;;5.70;4.60;;;;;;;8.10;72.64;100847.78;4987246;28;20101;-74
2023/04/15 02:07:44;;;;;;;9.60;5.07;;;;;;;8.05;72.74;100853.13;5003232;28;20329;-73
2023/04/15 02:10:12;;;;;;;8.43;6.30;;;;;;;8.03;72.91;100848.84;5004012;28;20034;-74
2023/04/15 02:12:37;;;;;;;7.63;4.80;;;;;;;8.00;73.11;100852.38;4987802;28;20046;-73
2023/04/15 02:15:04;;;;;;;9.10;5.07;;;;;;;8.02;73.33;100855.84;4986599;28;20065;-74
2023/04/15 02:17:30;;;;;;;7.50;5.35;;;;;;;8.04;73.54;100856.63;4989640;28;20282;-74
2023/04/15 02:19:56;;;;;;;7.13;5.65;;;;;;;8.04;73.76;100851.41;4999444;28;20038;-74
2023/04/15 02:22:21;;;;;;;5.72;5.20;;;;;;;8.04;73.59;100861.84;5000981;28;20333;-73
2023/04/15 02:24:47;;;;;;;8.38;5.20;;;;;;;8.03;74.00;100856.69;5000307;28;20054;-74
2023/04/15 02:27:19;;;;;;;5.57;5.07;;;;;;;8.04;74.14;100856.63;5000799;28;20046;-74
2023/04/15 02:29:45;;;;;;;5.15;4.10;;;;;;;8.04;74.05;100861.84;5000177;28;20046;-73
2023/04/15 02:32:11;;;;;;;7.50;4.60;;;;;;;8.05;73.95;100865.31;4990593;28;20049;-74
2023/04/15 02:34:40;;;;;;;7.00;5.20;;;;;;;8.04;74.37;100872.28;5000040;28;20042;-74
2023/04/15 02:37:06;;;;;;;7.20;5.45;;;;;;;8.03;74.60;100867.97;4988633;28;20400;-74
2023/04/15 02:39:31;;;;;;;5.68;4.60;;;;;;;8.01;74.89;100874.13;5000371;28;20235;-74
2023/04/15 02:41:58;;;;;;;7.07;5.00;;;;;;;7.98;74.99;100867.22;4999519;28;20069;-73
2023/04/15 02:44:24;;;;;;;6.35;5.15;;;;;;;7.98;75.07;100876.81;5000567;28;20038;-74
2023/04/15 02:46:51;;;;;;;7.75;4.78;;;;;;;7.95;74.97;100871.69;4998462;28;20365;-74
2023/04/15 02:49:17;;;;;;;6.30;5.70;;;;;;;7.94;74.88;100870.00;5000318;28;20046;-73
2023/04/15 02:51:44;;;;;;;5.18;4.80;;;;;;;7.94;75.05;100880.41;4999743;28;20042;-74
2023/04/15 02:54:09;;;;;;;7.13;5.07;;;;;;;7.93;75.12;100881.31;5000281;28;20041;-76
2023/04/15 02:56:35;;;;;;;6.07;4.78;;;;;;;7.95;75.20;100887.31;4992669;28;20337;-76
2023/04/15 02:59:00;;;;;;;9.05;5.50;;;;;;;7.94;75.49;100896.06;4990669;28;20042;-76
2023/04/15 03:01:26;;;;;;;9.13;5.50;;;;;;;7.93;75.31;100896.97;4999849;28;20388;-76
2023/04/15 03:03:51;;;;;;;7.00;4.95;;;;;;;7.91;75.57;100898.75;4998283;28;20062;-76
2023/04/15 03:06:16;;;;;;;8.98;4.82;;;;;;;7.91;75.83;100891.78;4999073;28;20049;-76
2023/04/15 03:08:42;;;;;;;6.68;4.35;;;;;;;7.92;75.91;100896.09;4984976;28;20038;-76
2023/04/15 03:11:07;;;;;;;6.03;5.38;;;;;;;7.94;75.90;100909.13;4999774;28;20042;-76
2023/04/15 03:13:32;;;;;;;4.57;4.10;;;;;;;7.96;75.85;100899.47;4999275;28;20038;-76
2023/04/15 03:15:58;;;;;;;5.45;4.82;;;;;;;7.97;75.75;100904.66;4999015;28;20042;-76
2023/04/15 03:18:23;;;;;;;5.88;3.95;;;;;;;7.98;75.61;100900.28;4999363;28;20038;-76
2023/04/15 03:20:48;;;;;;;4.60;4.05;;;;;;;8.00;75.93;100912.38;4982866;28;20069;-76
2023/04/15 03:23:14;;;;;;;4.80;3.92;;;;;;;8.01;75.83;100908.88;4979663;28;20350;-76
2023/04/15 03:25:39;;;;;;;4.60;4.22;;;;;;;8.01;75.55;100914.09;4997360;28;20042;-76
2023/04/15 03:28:05;;;;;;;4.65;4.35;;;;;;;8.01;75.63;100914.09;4999768;28;20045;-76
2023/04/15 03:30:30;;;;;;;6.78;5.20;;;;;;;8.01;75.87;100918.47;4997670;28;20057;-76
2023/04/15 03:32:56;;;;;;;4.90;4.40;;;;;;;8.00;76.05;100922.81;4998933;28;20053;-76
2023/04/15 03:35:21;;;;;;;4.40;4.00;;;;;;;8.01;75.76;100931.50;4998821;28;20030;-76
2023/04/15 03:37:48;;;;;;;9.30;5.05;;;;;;;8.00;75.92;100922.81;4998156;28;20100;-76
2023/04/15 03:40:13;;;;;;;4.82;4.43;;;;;;;8.00;75.85;100930.63;4996736;28;20077;-76
2023/04/15 03:42:39;;;;;;;4.40;4.03;;;;;;;7.99;75.71;100931.56;4997142;28;20029;-76
2023/04/15 03:45:06;;;;;;;4.50;4.10;;;;;;;8.02;75.92;100938.41;4996640;28;20042;-76
2023/04/15 03:47:31;;;;;;;4.90;3.78;;;;;;;8.01;75.74;100942.78;4999147;28;20042;-76
2023/04/15 03:49:57;;;;;;;4.32;3.92;;;;;;;8.00;75.61;100940.22;4994658;28;20084;-76
2023/04/15 03:52:22;;;;;;;4.85;4.38;;;;;;;7.99;75.51;100949.81;4997586;28;20110;-76
2023/04/15 03:54:48;;;;;;;4.40;4.00;;;;;;;7.98;75.50;100948.09;4995276;28;20325;-76
2023/04/15 03:57:13;;;;;;;4.68;4.38;;;;;;;7.97;75.41;100950.75;4997542;28;20042;-76
2023/04/15 03:59:39;;;;;;;4.00;3.70;;;;;;;7.96;75.52;100949.03;4996941;28;20034;-76
2023/04/15 04:02:05;;;;;;;4.72;4.28;;;;;;;7.95;75.40;100960.34;4978341;28;20208;-76
2023/04/15 04:04:30;;;;;;;4.68;4.28;;;;;;;7.92;75.34;100960.47;4998810;28;20378;-76
2023/04/15 04:06:56;;;;;;;4.57;4.15;;;;;;;7.91;75.47;100962.19;4997416;28;20324;-76
2023/04/15 04:09:21;;;;;;;4.55;4.15;;;;;;;7.91;75.35;100963.94;4997326;28;20239;-76
2023/04/15 04:11:46;;;;;;;4.50;4.20;;;;;;;7.88;75.37;100965.75;4997974;28;20057;-76
2023/04/15 04:14:12;;;;;;;4.70;4.32;;;;;;;7.85;75.33;100970.19;4993728;28;20268;-76
2023/04/15 04:16:37;;;;;;;4.20;3.90;;;;;;;7.85;75.36;100972.78;4992884;28;20054;-76
2023/04/15 04:19:02;;;;;;;5.50;4.50;;;;;;;7.83;75.25;100977.19;4998515;28;20053;-76
2023/04/15 04:21:28;;;;;;;5.28;4.45;;;;;;;7.77;75.01;100980.84;4992839;28;20065;-75
2023/04/15 04:23:53;;;;;;;5.43;4.30;;;;;;;7.76;75.14;100983.47;4997640;28;20085;-75
2023/04/15 04:26:19;;;;;;;4.75;4.30;;;;;;;7.73;75.27;100983.56;4998068;28;20046;-76
2023/04/15 04:28:44;;;;;;;5.75;4.57;;;;;;;7.73;75.36;100987.03;4996817;28;20042;-76
2023/04/15 04:31:10;;;;;;;5.13;4.65;;;;;;;7.72;75.60;100998.34;4996367;28;20046;-76
2023/04/15 04:33:36;;;;;;;6.05;4.72;;;;;;;7.69;75.42;100993.19;4996386;28;20553;-75
2023/04/15 04:36:01;;;;;;;6.72;4.90;;;;;;;7.67;75.59;100998.44;4998240;28;20042;-75
2023/04/15 04:38:26;;;;;;;5.40;4.85;;;;;;;7.64;75.34;100992.47;4998160;28;20345;-75
2023/04/15 04:40:52;;;;;;;4.45;4.05;;;;;;;7.61;75.78;101006.44;4996003;28;20042;-75
2023/04/15 04:43:17;;;;;;;5.75;5.25;;;;;;;7.55;75.71;101006.59;4997810;28;20066;-75
2023/04/15 04:45:42;;;;;;;5.22;4.72;;;;;;;7.53;75.98;101015.34;4997281;28;20042;-76
2023/04/15 04:48:09;;;;;;;5.50;5.00;;;;;;;7.50;76.04;101021.50;4998220;28;20365;-76
2023/04/15 04:50:35;;;;;;;7.20;5.18;;;;;;;7.47;76.22;101030.22;4993316;28;20041;-76
2023/04/15 04:53:01;;;;;;;7.85;5.78;;;;;;;7.42;76.56;101020.81;4998379;28;20559;-76
2023/04/15 04:55:26;;;;;;;7.15;5.47;;;;;;;7.42;76.66;101028.63;4993367;28;20038;-76
2023/04/15 04:57:52;;;;;;;6.63;4.90;;;;;;;7.41;76.99;101030.41;4997407;28;20106;-76
2023/04/15 05:00:18;;;;;;;6.53;5.70;;;;;;;7.43;77.20;101038.19;4995008;28;20039;-76
2023/04/15 05:02:43;;;;;;;5.15;4.75;;;;;;;7.40;77.18;101039.09;4991054;28;20089;-76
2023/04/15 05:05:10;;;;;;;4.82;4.43;;;;;;;7.41;77.08;101047.78;4980653;28;20049;-76
2023/04/15 05:07:36;;;;;;;5.30;4.72;;;;;;;7.41;77.07;101050.41;4997244;28;20281;-75
2023/04/15 05:10:02;;;;;;;5.95;5.38;;;;;;;7.40;77.49;101053.88;4997557;28;20065;-76
2023/04/15 05:12:27;;;;;;;5.63;4.97;;;;;;;7.40;77.55;101062.53;4997353;28;20046;-76
2023/04/15 05:14:53;;;;;;;4.75;4.35;;;;;;;7.41;77.43;101066.88;4993810;28;20563;-76
2023/04/15 05:17:18;;;;;;;3.90;3.60;;;;;;;7.42;77.72;101071.22;4995819;28;20285;-76
2023/04/15 05:19:44;;;;;;;5.63;5.13;;;;;;;7.45;77.33;101075.47;4995580;28;20313;-76
2023/04/15 05:22:09;;;;;;;4.35;3.85;;;;;;;7.46;77.56;101085.03;4991665;28;20141;-76
2023/04/15 05:24:35;;;;;;;5.28;3.88;;;;;;;7.47;77.30;101082.34;4987657;28;20034;-76
2023/04/15 05:27:00;;;;;;;5.13;4.00;;;;;;;7.48;77.29;101088.44;4990733;28;20118;-76
2023/04/15 05:29:26;;;;;;;5.80;4.57;;;;;;;7.47;77.21;101103.19;4985696;28;20038;-76
2023/04/15 05:31:51;;;;;;;4.32;4.03;;;;;;;7.47;77.37;101095.38;4987685;28;20303;-76
2023/04/15 05:34:17;;;;;;;5.15;4.65;;;;;;;7.47;77.23;101103.19;4997773;28;20069;-76
2023/04/15 05:36:42;;;;;;;5.13;4.63;;;;;;;7.48;77.43;101115.34;4996790;28;20042;-76
2023/04/15 05:39:07;;;;;;;5.68;5.18;;;;;;;7.48;77.33;101115.34;4994435;28;20043;-76
2023/04/15 05:41:33;;;;;;;5.20;4.72;;;;;;;7.48;77.44;101128.38;4987154;28;20044;-76
2023/04/15 05:43:58;;;;;;;5.43;4.93;;;;;;;7.47;77.62;101128.41;4986815;28;20038;-76
2023/04/15 05:46:24;;;;;;;6.55;4.60;;;;;;;7.46;77.55;101130.16;4987959;28;20093;-76
2023/04/15 05:48:49;;;;;;;5.68;5.18;;;;;;;7.45;77.71;101141.47;4986428;28;20035;-76
2023/04/15 05:51:15;;;;;;;5.70;5.20;;;;;;;7.45;78.04;101136.25;4988539;28;20360;-76
2023/04/15 05:53:40;;;;;;;5.90;5.30;;;;;;;7.45;78.03;101151.06;4989323;28;20333;-76
2023/04/15 05:56:06;;;;;;;8.48;5.65;;;;;;;7.44;78.04;101150.19;4992454;28;20050;-76
2023/04/15 05:58:32;;;;;;;7.65;5.30;;;;;;;7.43;78.22;101158.91;4995160;28;20051;-76
2023/04/15 06:00:58;;;;;;;9.98;5.43;;;;;;;7.44;78.68;101163.22;4997796;28;20081;-76
2023/04/15 06:03:23;;;;;;;7.85;5.13;;;;;;;7.43;78.78;101166.72;4996469;28;20038;-76
2023/04/15 06:05:48;;;;;;;5.50;5.00;;;;;;;7.44;78.83;101168.44;4981223;28;20048;-76
2023/04/15 06:08:14;;;;;;;7.40;6.68;;;;;;;7.44;79.24;101180.59;5000798;28;20117;-76
2023/04/15 06:10:39;;;;;;;6.00;5.40;;;;;;;7.44;79.22;101180.59;4997088;28;20046;-76
2023/04/15 06:13:05;;;;;;;6.88;6.28;;;;;;;7.44;79.79;101184.09;4997706;28;20038;-77
2023/04/15 06:15:31;;;;;;;6.40;5.65;;;;;;;7.44;80.10;101198.84;4996785;28;20114;-77
2023/04/15 06:17:56;;;;;;;10.48;6.50;;;;;;;7.43;80.19;101195.38;4997202;28;20046;-77
2023/04/15 06:20:22;;;;;;;7.90;7.15;;;;;;;7.43;80.44;101199.75;4996839;28;20046;-77
2023/04/15 06:22:48;;;;;;;6.75;5.93;;;;;;;7.43;80.51;101212.78;4996600;28;20050;-77
2023/04/15 06:25:14;;;;;;;10.55;6.35;;;;;;;7.42;81.03;101222.34;4996936;28;20290;-77
2023/04/15 06:27:39;;;;;;;7.30;6.38;;;;;;;7.43;81.00;101212.78;4997087;28;20038;-77
2023/04/15 06:30:05;;;;;;;9.80;7.60;;;;;;;7.44;81.21;101227.50;4996830;28;20053;-77
2023/04/15 06:32:31;;;;;;;10.95;6.63;;;;;;;7.44;81.47;101227.50;4994114;28;20349;-77
2023/04/15 06:34:57;;;;;;;10.48;6.82;;;;;;;7.45;81.65;101224.00;4999751;28;20241;-77
2023/04/15 06:37:22;;;;;;;7.75;6.50;;;;;;;7.46;81.74;101237.03;4993986;28;20041;-77
2023/04/15 06:39:47;;;;;;;9.07;7.13;;;;;;;7.47;81.80;101243.94;4996762;28;20042;-77
2023/04/15 06:42:13;;;;;;;8.15;6.40;;;;;;;7.47;82.03;101248.28;4983156;28;20277;-77
2023/04/15 06:44:38;;;;;;;9.05;7.15;;;;;;;7.50;82.39;101245.63;4998852;28;20312;-77
2023/04/15 06:47:04;;;;;;;9.00;6.90;;;;;;;7.50;83.00;101256.06;4984255;28;20410;-77
2023/04/15 06:49:29;;;;;;;7.18;6.47;;;;;;;7.49;83.08;101250.00;4980198;28;20125;-77
2023/04/15 06:51:55;;;;;;;10.57;7.25;;;;;;;7.53;83.32;101261.22;4980281;28;20050;-77
2023/04/15 06:54:20;;;;;;;10.90;7.13;;;;;;;7.54;83.28;101260.31;4980769;28;20298;-77
2023/04/15 06:56:46;;;;;;;8.25;7.40;;;;;;;7.59;83.40;101265.44;4978676;28;20039;-76
2023/04/15 06:59:13;;;;;;;8.95;6.43;;;;;;;7.61;83.39;101263.66;4982602;28;20049;-77
2023/04/15 07:01:39;;;;;;;9.00;6.82;;;;;;;7.64;83.36;101268.78;4997843;28;20050;-77
2023/04/15 07:04:05;;;;;;;11.38;7.35;;;;;;;7.67;83.54;101268.72;4999852;28;20045;-77
2023/04/15 07:06:31;;;;;;;10.32;7.20;;;;;;;7.69;83.49;101275.63;4995925;28;20345;-76
2023/04/15 07:08:57;;;;;;;10.35;7.28;;;;;;;7.73;83.50;101272.94;4978646;28;20037;-76
2023/04/15 07:11:22;;;;;;;7.80;7.00;;;;;;;7.77;83.24;101278.06;4985115;28;20046;-76
2023/04/15 07:13:47;;;;;;;7.53;6.82;;;;;;;7.82;83.41;101280.56;4996173;28;20046;-76
2023/04/15 07:16:13;;;;;;;9.90;6.95;;;;;;;7.86;83.52;101282.22;4996244;28;20092;-77
2023/04/15 07:18:38;;;;;;;7.00;6.40;;;;;;;7.90;83.51;101288.22;4976838;28;20026;-77
2023/04/15 07:21:04;;;;;;;9.38;7.55;;;;;;;7.96;83.51;101280.25;4995787;28;20058;-77
2023/04/15 07:23:30;;;;;;;7.88;7.03;;;;;;;8.00;83.38;101289.72;4999879;28;20034;-77
2023/04/15 07:25:56;;;;;;;7.90;7.15;;;;;;;8.05;83.26;101291.31;4995770;28;20070;-77
2023/04/15 07:28:21;;;;;;;10.93;7.22;;;;;;;8.12;83.15;101301.63;4990324;28;20357;-77
2023/04/15 07:30:47;;;;;;;7.40;6.68;;;;;;;8.17;83.01;101302.41;4997696;28;20042;-77
2023/04/15 07:33:13;;;;;;;7.38;6.60;;;;;;;8.23;82.43;101308.31;4998797;28;20045;-77
2023/04/15 07:35:38;;;;;;;8.30;7.07;;;;;;;8.29;82.47;101314.28;4997520;28;20026;-77
2023/04/15 07:38:03;;;;;;;9.60;6.88;;;;;;;8.35;82.63;101325.44;4991424;28;20113;-77
2023/04/15 07:40:29;;;;;;;7.80;7.00;;;;;;;8.39;82.20;101316.63;4993918;28;20026;-77
2023/04/15 07:42:57;;;;;;;9.88;6.60;;;;;;;8.45;82.62;101321.72;4982408;28;20042;-77
2023/04/15 07:45:23;;;;;;;8.73;6.22;;;;;;;8.51;81.93;101328.56;4996980;28;20042;-77
2023/04/15 07:47:50;;;;;;;6.88;6.10;;;;;;;8.57;81.58;101332.81;4996268;28;20342;-77
2023/04/15 07:50:16;;;;;;;8.95;7.15;;;;;;;8.61;81.93;101331.81;4996368;28;20242;-77
2023/04/15 07:52:41;;;;;;;10.02;6.72;;;;;;;8.68;82.12;101337.72;4991867;28;20232;-77
2023/04/15 07:55:08;;;;;;;7.68;6.97;;;;;;;8.71;81.82;101343.72;4999077;28;20369;-77
2023/04/15 07:57:34;;;;;;;7.32;6.63;;;;;;;8.78;82.08;101341.84;4984063;28;20080;-77
2023/04/15 08:00:00;;;;;;;8.02;6.85;;;;;;;8.83;81.55;101347.81;4997931;28;20345;-77
2023/04/15 08:02:26;;;;;;;9.85;6.75;;;;;;;8.90;81.67;101359.81;4992703;28;20034;-77
2023/04/15 08:04:52;;;;;;;8.77;6.72;;;;;;;8.98;81.94;101367.44;4994756;28;20185;-77
2023/04/15 08:07:18;;;;;;;8.02;6.65;;;;;;;9.01;81.28;101370.84;4997811;28;20072;-77
2023/04/15 08:09:44;;;;;;;6.35;5.55;;;;;;;9.08;80.76;101370.66;4997342;28;20417;-77
2023/04/15 08:12:12;;;;;;;7.45;6.53;;;;;;;9.14;79.77;101380.97;4993213;28;20049;-77
2023/04/15 08:14:37;;;;;;;7.23;6.63;;;;;;;9.20;79.87;101384.31;4980963;28;20038;-77
2023/04/15 08:17:03;;;;;;;7.90;6.82;;;;;;;9.25;80.14;101391.16;4995421;28;20367;-77
2023/04/15 08:19:29;;;;;;;7.97;6.97;;;;;;;9.29;80.99;101383.19;4995174;28;20038;-78
2023/04/15 08:21:55;;;;;;;8.18;6.82;;;;;;;9.34;81.21;101390.91;4998113;28;20245;-77
2023/04/15 08:24:20;;;;;;;7.97;6.57;;;;;;;9.38;80.83;101400.38;4998757;28;20241;-77
2023/04/15 08:26:46;;;;;;;9.95;6.63;;;;;;;9.42;80.81;101396.78;4991231;28;20085;-77
2023/04/15 08:29:12;;;;;;;8.18;6.65;;;;;;;9.48;79.71;101400.97;4992803;28;20038;-77
2023/04/15 08:31:37;;;;;;;6.70;6.10;;;;;;;9.55;79.48;101410.38;4997483;28;20324;-77
2023/04/15 08:34:02;;;;;;;10.68;6.80;;;;;;;9.61;79.71;101413.69;4966057;28;20045;-77
2023/04/15 08:36:28;;;;;;;7.22;6.57;;;;;;;9.66;79.40;101410.97;4994257;28;20067;-77
2023/04/15 08:38:54;;;;;;;8.23;6.47;;;;;;;9.71;79.37;101429.97;4989721;28;20038;-77
2023/04/15 08:41:24;;;;;;;9.32;6.45;;;;;;;9.77;78.67;101427.22;4996007;28;20376;-77
2023/04/15 08:44:00;;;;;;;8.55;7.22;;;;;;;9.80;78.48;101423.63;4997013;28;20057;-77
2023/04/15 08:46:26;;;;;;;7.40;6.75;;;;;;;9.83;79.26;101427.94;4995467;28;20038;-77
2023/04/15 08:48:55;;;;;;;8.52;7.10;;;;;;;9.88;79.17;101434.75;4989207;28;20045;-77
2023/04/15 08:51:21;;;;;;;11.30;7.50;;;;;;;9.91;78.83;101439.03;4995969;28;20045;-77
2023/04/15 08:53:46;;;;;;;10.77;7.60;;;;;;;9.95;78.67;101451.13;4990442;28;20038;-77
2023/04/15 08:56:15;;;;;;;8.93;7.13;;;;;;;9.97;78.51;101455.44;4994667;28;20046;-77
2023/04/15 08:58:42;;;;;;;9.15;7.63;;;;;;;10.01;77.71;101457.97;4997129;28;20030;-77
2023/04/15 09:01:08;;;;;;;9.18;8.10;;;;;;;10.01;76.72;101466.66;4997872;28;20096;-77
2023/04/15 09:03:33;;;;;;;12.10;7.22;;;;;;;10.03;76.66;101464.00;4998082;28;20341;-77
2023/04/15 09:05:59;;;;;;;9.80;7.57;;;;;;;10.05;76.00;101463.06;4998709;28;20301;-77
2023/04/15 09:08:25;;;;;;;7.47;6.75;;;;;;;10.09;75.91;101469.06;4998204;28;20073;-77
2023/04/15 09:10:51;;;;;;;8.13;7.00;;;;;;;10.17;76.08;101474.94;4997696;28;20046;-77
2023/04/15 09:13:17;;;;;;;9.13;6.95;;;;;;;10.23;76.02;101463.44;4998289;28;20116;-77
2023/04/15 09:15:42;;;;;;;7.53;6.32;;;;;;;10.30;74.94;101480.69;4986452;28;20138;-77
2023/04/15 09:18:11;;;;;;;7.50;6.32;;;;;;;10.35;74.36;101470.94;4989953;28;20353;-77
2023/04/15 09:20:43;;;;;;;8.05;6.35;;;;;;;10.42;74.11;101476.88;4990452;28;20054;-77
2023/04/15 09:23:13;;;;;;;6.20;5.57;;;;;;;10.49;72.48;101483.63;4990708;28;20081;-77
2023/04/15 09:25:41;;;;;;;6.47;5.75;;;;;;;10.54;71.88;101484.34;4987427;28;20376;-78
2023/04/15 09:28:06;;;;;;;9.47;5.83;;;;;;;10.58;71.64;101488.59;4990410;28;20293;-77
2023/04/15 09:30:32;;;;;;;9.02;5.70;;;;;;;10.65;71.28;101495.34;4997373;28;20026;-77
2023/04/15 09:33:01;;;;;;;11.73;5.45;;;;;;;10.70;70.27;101503.94;4993463;28;20046;-77
2023/04/15 09:35:26;;;;;;;;;;;;;;;10.73;69.96;101505.59;4994590;28;20041;-77
2023/04/15 09:37:53;;;;;;;6.05;4.35;;;;;;;10.73;68.77;101509.09;4992792;28;19917;-77
2023/04/15 09:40:35;;;;;;;6.88;4.40;;;;;;;10.75;67.54;101511.63;4990952;28;20038;-77
2023/04/15 09:43:01;;;;;;;5.97;4.35;;;;;;;10.78;66.23;101524.66;4996076;28;20041;-77
2023/04/15 09:45:28;;;;;;;10.48;4.22;;;;;;;10.81;65.23;101527.19;4991509;28;20342;-77
2023/04/15 09:47:53;;;;;;;6.15;3.70;;;;;;;10.85;64.96;101525.34;4983374;28;20038;-77
2023/04/15 09:50:19;;;;;;;3.92;2.85;;;;;;;10.86;64.73;101520.06;4996764;28;20038;-77
2023/04/15 09:52:45;;;;;;;7.32;2.55;;;;;;;10.91;64.66;101526.03;4990239;28;20321;-77
2023/04/15 09:55:13;;;;;;;5.22;1.98;;;;;;;10.93;62.84;101536.41;4997639;28;20042;-77
2023/04/15 09:57:43;;;;;;;4.13;1.88;;;;;;;10.95;62.08;101538.09;4993760;28;20337;-77
2023/04/15 10:00:10;;;;;;;3.20;2.13;;;;;;;10.97;62.62;101539.81;4998287;28;20108;-77
2023/04/15 10:02:36;;;;;;;2.40;2.20;;;;;;;11.00;63.45;101544.97;4994677;28;20345;-76
2023/04/15 10:05:02;;;;;;;4.07;2.33;;;;;;;11.03;63.91;101542.25;4999326;28;20042;-77
2023/04/15 10:07:28;;;;;;;2.70;2.10;;;;;;;11.07;62.30;101544.72;4994634;28;20050;-77
2023/04/15 10:09:55;;;;;;;2.88;1.95;;;;;;;11.11;61.98;101548.09;4997317;28;20034;-77
2023/04/15 10:12:21;;;;;;;2.05;1.85;;;;;;;11.15;62.24;101549.72;4996681;28;20210;-77
2023/04/15 10:14:55;;;;;;;4.07;1.90;;;;;;;11.18;62.45;101548.78;4999525;28;20070;-77
2023/04/15 10:17:22;;;;;;;3.25;1.70;;;;;;;11.21;62.03;101552.16;4993936;28;20286;-77
2023/04/15 10:19:48;;;;;;;2.33;1.55;;;;;;;11.27;62.66;101553.72;4988516;28;20034;-77
2023/04/15 10:22:14;;;;;;;44.13;27.45;;;;;;;11.29;61.86;101552.75;4998873;28;20058;-77
2023/04/15 10:24:39;;;;;;;4.63;3.65;;;;;;;11.31;62.78;101556.22;4999517;28;20072;-77
2023/04/15 10:27:05;;;;;;;3.72;1.80;;;;;;;11.35;62.10;101559.59;4992734;28;20034;-77
2023/04/15 10:29:31;;;;;;;2.45;1.70;;;;;;;11.38;62.21;101556.84;4994202;28;20018;-77
2023/04/15 10:31:59;;;;;;;3.35;1.95;;;;;;;11.41;63.09;101556.75;4998728;28;20391;-76
2023/04/15 10:34:25;;;;;;;2.58;2.35;;;;;;;11.46;63.49;101561.84;4999893;28;20189;-77
2023/04/15 10:36:55;;;;;;;5.32;2.60;;;;;;;11.51;64.39;101557.28;4995091;28;20034;-76
2023/04/15 10:39:36;;;;;;;6.38;2.17;;;;;;;11.58;64.89;101569.31;4988107;28;20069;-76
2023/04/15 10:42:12;;;;;;;5.38;2.05;;;;;;;11.68;64.37;101573.34;4999067;28;20038;-77
2023/04/15 10:44:40;;;;;;;2.28;2.00;;;;;;;11.73;63.22;101570.56;4998553;28;20050;-77
2023/04/15 10:47:18;;;;;;;5.70;3.08;;;;;;;11.77;63.45;101577.44;4998872;28;20041;-76
2023/04/15 10:49:47;;;;;;;2.63;2.42;;;;;;;11.78;62.75;101579.13;4993599;28;20064;-77
2023/04/15 10:52:14;;;;;;;5.95;1.90;;;;;;;11.80;61.61;101579.09;4992902;28;20039;-77
2023/04/15 10:54:39;;;;;;;3.05;2.13;;;;;;;11.81;60.93;101575.56;4980573;28;20030;-77
2023/04/15 10:57:05;;;;;;;6.90;4.25;;;;;;;11.84;61.02;101572.81;4990412;28;20097;-76
2023/04/15 10:59:53;;;;;;;2.85;2.00;;;;;;;11.84;59.79;101578.06;4999933;28;20083;-77
2023/04/15 11:02:19;;;;;;;5.18;2.35;;;;;;;11.83;60.36;101582.47;4989921;28;20428;-77
2023/04/15 11:04:57;;;;;;;4.13;2.17;;;;;;;11.88;61.82;101577.06;4996916;28;20049;-78
2023/04/15 11:07:33;;;;;;;2.50;2.30;;;;;;;11.94;61.56;101591.78;4990582;28;20275;-77
2023/04/15 11:09:59;;;;;;;3.58;2.75;;;;;;;11.94;61.12;101597.88;4990101;28;20333;-77
2023/04/15 11:12:35;;;;;;;3.97;2.17;;;;;;;11.99;61.56;101589.81;4996207;28;20049;-77
2023/04/15 11:15:29;;;;;;;5.32;2.67;;;;;;;12.04;60.87;101598.41;4995138;28;20401;-77
2023/04/15 11:17:56;;;;;;;4.55;2.40;;;;;;;12.06;60.36;101599.22;4990172;28;20058;-78
2023/04/15 11:20:22;;;;;;;6.13;3.22;;;;;;;12.06;60.84;101592.22;4990284;28;20222;-78
2023/04/15 11:22:51;;;;;;;2.50;2.28;;;;;;;12.09;61.31;101599.13;4996346;28;20034;-78
2023/04/15 11:25:24;;;;;;;7.72;2.63;;;;;;;12.16;61.30;101605.03;4991380;28;20086;-75
2023/04/15 11:27:49;;;;;;;6.93;2.55;;;;;;;12.19;60.76;101615.44;4990108;28;20046;-75